createdAt,value
2023-04-15T00:00:05.180Z,58.71
2023-04-15T00:01:06.709Z,58.77
2023-04-15T00:02:18.531Z,58.76
2023-04-15T00:03:20.613Z,58.06
2023-04-15T00:04:22.339Z,58.26
2023-04-15T00:05:23.986Z,58.34
2023-04-15T00:06:26.319Z,58.45
2023-04-15T00:07:27.840Z,59.09
2023-04-15T00:08:30.471Z,58.91
2023-04-15T00:09:32.031Z,58.64
2023-04-15T00:10:33.558Z,58.80
2023-04-15T00:11:35.616Z,58.75
2023-04-15T00:12:37.181Z,58.82
2023-04-15T00:13:39.882Z,58.61
2023-04-15T00:14:41.463Z,59.26
2023-04-15T00:15:43.371Z,59.11
2023-04-15T00:16:45.060Z,58.98
2023-04-15T00:17:47.084Z,58.75
2023-04-15T00:18:48.964Z,59.81
2023-04-15T00:19:50.588Z,59.02
2023-04-15T00:20:52.585Z,59.01
2023-04-15T00:21:54.227Z,59.69
2023-04-15T00:22:55.860Z,59.29
2023-04-15T00:23:57.760Z,59.66
2023-04-15T00:24:59.307Z,59.34
2023-04-15T00:26:00.839Z,58.31
2023-04-15T00:27:02.448Z,58.46
2023-04-15T00:28:04.195Z,59.53
2023-04-15T00:29:06.270Z,59.03
2023-04-15T00:30:08.219Z,59.32
2023-04-15T00:31:09.889Z,59.30
2023-04-15T00:32:11.455Z,59.56
2023-04-15T00:33:13.760Z,59.39
2023-04-15T00:34:15.350Z,59.27
2023-04-15T00:35:17.399Z,60.20
2023-04-15T00:36:19.481Z,59.78
2023-04-15T00:37:21.260Z,60.18
2023-04-15T00:38:23.203Z,61.18
2023-04-15T00:39:24.814Z,60.99
2023-04-15T00:40:26.415Z,60.19
2023-04-15T00:41:28.091Z,60.53
2023-04-15T00:42:29.744Z,60.09
2023-04-15T00:43:31.263Z,60.56
2023-04-15T00:44:33.445Z,60.97
2023-04-15T00:45:35.013Z,62.33
2023-04-15T00:46:37.735Z,61.98
2023-04-15T00:47:39.554Z,61.84
2023-04-15T00:48:41.521Z,61.50
2023-04-15T00:49:43.402Z,61.59
2023-04-15T00:50:45.160Z,61.54
2023-04-15T00:51:47.085Z,61.52
2023-04-15T00:52:48.732Z,61.21
2023-04-15T00:53:50.379Z,60.64
2023-04-15T00:54:52.895Z,60.77
2023-04-15T00:55:54.422Z,60.54
2023-04-15T00:56:56.609Z,61.16
2023-04-15T00:57:58.194Z,60.74
2023-04-15T00:59:00.448Z,60.30
2023-04-15T01:00:02.831Z,61.23
2023-04-15T01:01:04.622Z,60.90
2023-04-15T01:02:06.978Z,61.37
2023-04-15T01:03:09.005Z,61.36
2023-04-15T01:04:11.896Z,61.16
2023-04-15T01:05:13.707Z,61.01
2023-04-15T01:06:15.219Z,60.29
2023-04-15T01:07:17.376Z,60.35
2023-04-15T01:08:18.908Z,59.99
2023-04-15T01:09:21.098Z,59.75
2023-04-15T01:10:22.639Z,59.70
2023-04-15T01:11:24.429Z,59.57
2023-04-15T01:12:26.983Z,59.98
2023-04-15T01:13:28.665Z,59.29
2023-04-15T01:14:30.259Z,59.29
2023-04-15T01:15:32.128Z,59.19
2023-04-15T01:16:33.697Z,59.93
2023-04-15T01:17:35.363Z,59.29
2023-04-15T01:18:37.838Z,59.52
2023-04-15T01:19:40.104Z,58.89
2023-04-15T01:20:41.721Z,59.13
2023-04-15T01:21:43.251Z,58.80
2023-04-15T01:22:45.348Z,58.72
2023-04-15T01:23:47.316Z,59.46
2023-04-15T01:25:08.624Z,59.11
2023-04-15T01:26:10.221Z,58.59
2023-04-15T01:27:11.748Z,59.08
2023-04-15T01:28:13.245Z,59.06
2023-04-15T01:29:15.506Z,59.11
2023-04-15T01:30:17.683Z,58.56
2023-04-15T01:31:19.342Z,58.89
2023-04-15T01:32:20.898Z,58.67
2023-04-15T01:33:22.383Z,59.25
2023-04-15T01:34:24.010Z,58.91
2023-04-15T01:35:26.114Z,59.19
2023-04-15T01:36:27.984Z,58.54
2023-04-15T01:37:29.544Z,58.93
2023-04-15T01:38:31.402Z,58.78
2023-04-15T01:39:33.623Z,58.44
2023-04-15T01:40:35.742Z,59.09
2023-04-15T01:41:37.255Z,59.05
2023-04-15T01:42:38.805Z,58.60
2023-04-15T01:43:40.360Z,58.81
2023-04-15T01:44:41.906Z,58.23
2023-04-15T01:45:43.765Z,59.06
2023-04-15T01:46:45.374Z,59.32
2023-04-15T01:47:46.953Z,58.71
2023-04-15T01:48:48.523Z,59.26
2023-04-15T01:49:50.046Z,59.02
2023-04-15T01:50:52.903Z,58.55
2023-04-15T01:51:54.453Z,58.50
2023-04-15T01:52:55.982Z,58.34
2023-04-15T01:53:57.497Z,58.38
2023-04-15T01:54:58.989Z,58.96
2023-04-15T01:56:00.910Z,58.62
2023-04-15T01:57:02.465Z,58.39
2023-04-15T01:58:04.113Z,58.40
2023-04-15T01:59:06.281Z,57.94
2023-04-15T02:00:08.271Z,58.81
2023-04-15T02:01:10.809Z,58.44
2023-04-15T02:02:12.661Z,58.45
2023-04-15T02:03:14.290Z,59.03
2023-04-15T02:04:18.726Z,58.74
2023-04-15T02:05:20.246Z,58.67
2023-04-15T02:06:22.078Z,58.34
2023-04-15T02:07:24.312Z,59.09
2023-04-15T02:08:25.872Z,58.87
2023-04-15T02:09:27.359Z,58.78
2023-04-15T02:10:28.858Z,58.25
2023-04-15T02:11:30.389Z,58.31
2023-04-15T02:12:31.942Z,58.60
2023-04-15T02:13:33.461Z,58.09
2023-04-15T02:14:34.952Z,58.66
2023-04-15T02:15:36.645Z,58.85
2023-04-15T02:16:38.212Z,58.57
2023-04-15T02:17:39.831Z,58.94
2023-04-15T02:18:41.706Z,59.70
2023-04-15T02:19:43.206Z,59.37
2023-04-15T02:20:45.489Z,59.06
2023-04-15T02:21:46.986Z,59.78
2023-04-15T02:22:48.704Z,59.59
2023-04-15T02:23:52.882Z,60.35
2023-04-15T02:24:55.467Z,60.09
2023-04-15T02:25:57.330Z,59.38
2023-04-15T02:26:58.886Z,60.00
2023-04-15T02:28:00.394Z,59.82
2023-04-15T02:29:02.149Z,59.41
2023-04-15T02:30:04.115Z,59.05
2023-04-15T02:31:10.201Z,59.85
2023-04-15T02:32:13.144Z,58.73
2023-04-15T02:33:14.582Z,58.19
2023-04-15T02:34:15.964Z,57.49
2023-04-15T02:35:19.842Z,56.92
2023-04-15T02:36:21.759Z,57.60
2023-04-15T02:37:23.384Z,57.84
2023-04-15T02:38:25.145Z,58.25
2023-04-15T02:39:27.372Z,58.68
2023-04-15T02:40:29.012Z,59.11
2023-04-15T02:41:30.654Z,59.18
2023-04-15T02:42:32.601Z,58.68
2023-04-15T02:43:34.157Z,59.65
2023-04-15T02:44:36.566Z,59.01
2023-04-15T02:45:38.221Z,59.14
2023-04-15T02:46:41.300Z,59.09
2023-04-15T02:47:43.396Z,59.27
2023-04-15T02:48:44.975Z,59.01
2023-04-15T02:49:46.676Z,59.62
2023-04-15T02:50:48.753Z,60.18
2023-04-15T02:51:51.284Z,60.17
2023-04-15T02:52:52.826Z,60.66
2023-04-15T02:53:54.433Z,60.76
2023-04-15T02:55:00.549Z,60.02
2023-04-15T02:56:02.439Z,60.35
2023-04-15T02:57:06.761Z,60.46
2023-04-15T02:58:08.408Z,59.88
2023-04-15T02:59:09.981Z,59.72
2023-04-15T03:00:12.211Z,59.57
2023-04-15T03:01:14.164Z,59.67
2023-04-15T03:02:15.936Z,59.94
2023-04-15T03:03:17.678Z,59.44
2023-04-15T03:04:19.303Z,60.13
2023-04-15T03:05:20.861Z,59.37
2023-04-15T03:06:22.702Z,59.49
2023-04-15T03:07:24.290Z,59.80
2023-04-15T03:08:26.154Z,59.06
2023-04-15T03:09:27.765Z,59.80
2023-04-15T03:10:29.324Z,59.05
2023-04-15T03:11:31.594Z,58.96
2023-04-15T03:12:33.074Z,59.13
2023-04-15T03:13:34.604Z,58.83
2023-04-15T03:14:36.273Z,59.38
2023-04-15T03:15:37.807Z,59.19
2023-04-15T03:16:39.357Z,58.86
2023-04-15T03:17:41.083Z,58.54
2023-04-15T03:18:42.646Z,59.07
2023-04-15T03:19:44.299Z,58.40
2023-04-15T03:20:45.916Z,59.22
2023-04-15T03:21:47.460Z,58.35
2023-04-15T03:22:48.943Z,58.55
2023-04-15T03:23:50.631Z,58.63
2023-04-15T03:24:52.122Z,58.99
2023-04-15T03:25:56.038Z,59.37
2023-04-15T03:26:57.871Z,59.10
2023-04-15T03:28:00.136Z,58.86
2023-04-15T03:29:01.851Z,58.62
2023-04-15T03:30:03.714Z,59.04
2023-04-15T03:31:05.661Z,58.67
2023-04-15T03:32:07.244Z,58.78
2023-04-15T03:33:08.905Z,58.65
2023-04-15T03:34:10.588Z,59.04
2023-04-15T03:35:12.440Z,58.73
2023-04-15T03:36:14.025Z,59.07
2023-04-15T03:37:15.583Z,58.73
2023-04-15T03:38:17.263Z,59.88
2023-04-15T03:39:18.776Z,59.21
2023-04-15T03:40:21.525Z,59.01
2023-04-15T03:41:23.038Z,59.41
2023-04-15T03:42:24.547Z,59.29
2023-04-15T03:43:26.463Z,59.05
2023-04-15T03:44:28.006Z,59.12
2023-04-15T03:45:29.545Z,58.90
2023-04-15T03:46:31.259Z,59.23
2023-04-15T03:47:32.850Z,59.34
2023-04-15T03:48:34.374Z,58.65
2023-04-15T03:49:36.693Z,59.21
2023-04-15T03:50:38.205Z,59.20
2023-04-15T03:51:39.719Z,59.15
2023-04-15T03:52:41.250Z,59.23
2023-04-15T03:53:42.737Z,59.39
2023-04-15T03:54:44.233Z,59.25
2023-04-15T03:55:45.801Z,59.39
2023-04-15T03:56:47.339Z,59.16
2023-04-15T03:57:48.966Z,59.49
2023-04-15T03:58:50.709Z,59.46
2023-04-15T03:59:52.252Z,59.04
2023-04-15T04:00:54.859Z,59.30
2023-04-15T04:01:56.559Z,58.71
2023-04-15T04:02:58.668Z,58.90
2023-04-15T04:04:00.426Z,59.38
2023-04-15T04:05:02.157Z,59.40
2023-04-15T04:06:03.718Z,58.88
2023-04-15T04:07:05.222Z,59.60
2023-04-15T04:08:06.735Z,59.21
2023-04-15T04:09:08.265Z,59.19
2023-04-15T04:10:10.025Z,59.17
2023-04-15T04:11:11.546Z,59.39
2023-04-15T04:12:13.110Z,58.69
2023-04-15T04:13:14.592Z,59.01
2023-04-15T04:14:16.095Z,58.88
2023-04-15T04:15:17.611Z,58.85
2023-04-15T04:16:19.294Z,59.24
2023-04-15T04:17:21.041Z,58.93
2023-04-15T04:18:22.753Z,58.90
2023-04-15T04:19:24.333Z,59.69
2023-04-15T04:20:25.863Z,59.30
2023-04-15T04:21:27.540Z,59.43
2023-04-15T04:22:29.138Z,59.31
2023-04-15T04:23:30.699Z,58.76
2023-04-15T04:24:32.374Z,59.38
2023-04-15T04:25:33.896Z,58.97
2023-04-15T04:26:35.461Z,59.32
2023-04-15T04:27:37.093Z,58.90
2023-04-15T04:28:40.610Z,58.78
2023-04-15T04:29:42.157Z,59.38
2023-04-15T04:30:43.679Z,59.62
2023-04-15T04:31:45.281Z,59.15
2023-04-15T04:32:46.905Z,59.21
2023-04-15T04:33:48.484Z,59.32
2023-04-15T04:34:50.056Z,59.01
2023-04-15T04:35:51.607Z,59.14
2023-04-15T04:36:53.112Z,59.57
2023-04-15T04:37:54.687Z,58.91
2023-04-15T04:38:56.244Z,59.37
2023-04-15T04:39:57.762Z,59.41
2023-04-15T04:40:59.320Z,58.97
2023-04-15T04:42:01.421Z,59.51
2023-04-15T04:43:02.943Z,58.89
2023-04-15T04:44:04.554Z,59.72
2023-04-15T04:45:06.569Z,59.37
2023-04-15T04:46:08.116Z,58.83
2023-04-15T04:47:09.758Z,58.73
2023-04-15T04:48:11.615Z,59.30
2023-04-15T04:49:13.163Z,59.05
2023-04-15T04:50:14.726Z,58.96
2023-04-15T04:51:16.388Z,59.08
2023-04-15T04:52:17.930Z,58.83
2023-04-15T04:53:19.496Z,59.16
2023-04-15T04:54:21.357Z,58.91
2023-04-15T04:55:22.934Z,58.44
2023-04-15T04:56:24.638Z,58.47
2023-04-15T04:57:26.566Z,59.21
2023-04-15T04:58:28.136Z,58.60
2023-04-15T04:59:29.741Z,58.51
2023-04-15T05:00:31.569Z,58.62
2023-04-15T05:01:33.288Z,58.35
2023-04-15T05:02:35.209Z,58.50
2023-04-15T05:03:37.026Z,58.60
2023-04-15T05:04:38.676Z,58.82
2023-04-15T05:05:41.555Z,58.63
2023-04-15T05:06:43.080Z,58.79
2023-04-15T05:07:44.677Z,58.91
2023-04-15T05:08:47.134Z,58.45
2023-04-15T05:09:48.685Z,58.84
2023-04-15T05:10:50.497Z,58.83
2023-04-15T05:11:52.089Z,58.18
2023-04-15T05:12:53.687Z,58.56
2023-04-15T05:13:55.538Z,58.17
2023-04-15T05:14:57.173Z,58.27
2023-04-15T05:15:58.983Z,58.74
2023-04-15T05:17:00.575Z,58.41
2023-04-15T05:18:02.240Z,58.99
2023-04-15T05:19:03.971Z,59.03
2023-04-15T05:20:06.225Z,58.49
2023-04-15T05:21:08.130Z,58.74
2023-04-15T05:22:09.732Z,59.29
2023-04-15T05:23:11.296Z,58.66
2023-04-15T05:24:12.844Z,58.78
2023-04-15T05:25:14.372Z,58.95
2023-04-15T05:26:16.143Z,58.54
2023-04-15T05:27:19.141Z,58.36
2023-04-15T05:28:21.257Z,58.28
2023-04-15T05:29:22.873Z,58.20
2023-04-15T05:30:24.629Z,58.64
2023-04-15T05:31:26.729Z,58.26
2023-04-15T05:32:28.403Z,58.45
2023-04-15T05:33:29.998Z,58.57
2023-04-15T05:34:31.594Z,59.00
2023-04-15T05:35:33.431Z,59.38
2023-04-15T05:36:35.026Z,58.61
2023-04-15T05:37:36.655Z,58.38
2023-04-15T05:38:38.516Z,58.80
2023-04-15T05:39:40.099Z,58.32
2023-04-15T05:40:41.674Z,58.63
2023-04-15T05:41:43.235Z,58.72
2023-04-15T05:42:44.858Z,58.77
2023-04-15T05:43:46.579Z,58.68
2023-04-15T05:44:48.508Z,58.44
2023-04-15T05:45:50.130Z,58.16
2023-04-15T05:46:51.953Z,57.94
2023-04-15T05:47:54.441Z,58.17
2023-04-15T05:48:56.806Z,58.56
2023-04-15T05:49:59.254Z,58.11
2023-04-15T05:51:01.235Z,58.39
2023-04-15T05:52:02.979Z,58.73
2023-04-15T05:53:04.512Z,58.43
2023-04-15T05:54:06.830Z,58.61
2023-04-15T05:55:09.082Z,58.60
2023-04-15T05:56:10.637Z,58.88
2023-04-15T05:57:12.200Z,58.18
2023-04-15T05:58:13.716Z,58.63
2023-04-15T05:59:15.325Z,58.52
2023-04-15T06:00:17.066Z,59.16
2023-04-15T06:01:18.609Z,59.11
2023-04-15T06:02:20.459Z,59.27
2023-04-15T06:03:23.094Z,58.93
2023-04-15T06:04:24.945Z,58.45
2023-04-15T06:05:26.614Z,59.09
2023-04-15T06:06:28.607Z,58.72
2023-04-15T06:07:30.307Z,58.62
2023-04-15T06:08:31.901Z,58.44
2023-04-15T06:09:33.849Z,58.42
2023-04-15T06:10:37.008Z,58.18
2023-04-15T06:11:38.636Z,57.56
2023-04-15T06:12:40.195Z,57.35
2023-04-15T06:13:41.711Z,57.29
2023-04-15T06:14:43.254Z,57.44
2023-04-15T06:15:45.106Z,57.46
2023-04-15T06:16:47.068Z,57.50
2023-04-15T06:17:48.668Z,57.58
2023-04-15T06:18:50.271Z,57.32
2023-04-15T06:19:55.972Z,57.04
2023-04-15T06:20:57.555Z,56.74
2023-04-15T06:21:59.180Z,57.25
2023-04-15T06:23:01.134Z,56.93
2023-04-15T06:24:02.955Z,57.16
2023-04-15T06:25:05.064Z,56.86
2023-04-15T06:26:06.782Z,57.28
2023-04-15T06:27:08.315Z,57.20
2023-04-15T06:28:09.902Z,58.00
2023-04-15T06:29:11.514Z,58.34
2023-04-15T06:30:13.840Z,59.04
2023-04-15T06:31:15.983Z,60.24
2023-04-15T06:32:17.519Z,60.88
2023-04-15T06:33:19.048Z,61.83
2023-04-15T06:34:20.697Z,60.76
2023-04-15T06:35:22.529Z,60.34
2023-04-15T06:36:24.104Z,60.08
2023-04-15T06:37:25.930Z,59.78
2023-04-15T06:38:27.518Z,58.97
2023-04-15T06:39:29.019Z,58.43
2023-04-15T06:40:30.630Z,58.79
2023-04-15T06:41:32.353Z,58.38
2023-04-15T06:42:34.207Z,58.24
2023-04-15T06:43:35.746Z,58.30
2023-04-15T06:44:37.389Z,58.55
2023-04-15T06:45:39.520Z,57.82
2023-04-15T06:46:41.365Z,57.67
2023-04-15T06:47:43.637Z,57.59
2023-04-15T06:48:45.324Z,57.92
2023-04-15T06:49:46.870Z,58.02
2023-04-15T06:50:49.670Z,57.27
2023-04-15T06:51:51.621Z,57.09
2023-04-15T06:52:54.514Z,57.40
2023-04-15T06:53:56.974Z,56.73
2023-04-15T06:54:59.704Z,57.28
2023-04-15T06:56:01.625Z,57.35
2023-04-15T06:57:03.395Z,57.15
2023-04-15T06:58:04.971Z,56.86
2023-04-15T06:59:06.654Z,57.17
2023-04-15T07:00:08.651Z,56.35
2023-04-15T07:01:10.351Z,57.05
2023-04-15T07:02:12.535Z,57.27
2023-04-15T07:03:15.165Z,57.22
2023-04-15T07:04:16.799Z,57.63
2023-04-15T07:05:19.073Z,57.18
2023-04-15T07:06:21.955Z,57.70
2023-04-15T07:07:23.467Z,57.61
2023-04-15T07:08:25.622Z,57.65
2023-04-15T07:09:27.379Z,57.90
2023-04-15T07:10:29.291Z,57.62
2023-04-15T07:11:30.906Z,57.81
2023-04-15T07:12:32.456Z,57.66
2023-04-15T07:13:34.024Z,58.22
2023-04-15T07:14:35.551Z,58.18
2023-04-15T07:15:37.418Z,57.63
2023-04-15T07:16:39.094Z,58.19
2023-04-15T07:17:43.201Z,58.14
2023-04-15T07:18:44.817Z,58.37
2023-04-15T07:19:46.450Z,58.46
2023-04-15T07:20:48.473Z,58.18
2023-04-15T07:21:50.099Z,58.16
2023-04-15T07:22:51.741Z,58.31
2023-04-15T07:23:53.511Z,57.68
2023-04-15T07:24:55.052Z,57.98
2023-04-15T07:25:57.819Z,57.62
2023-04-15T07:27:01.017Z,57.56
2023-04-15T07:28:03.454Z,57.70
2023-04-15T07:29:05.045Z,58.12
2023-04-15T07:30:07.463Z,58.36
2023-04-15T07:31:09.144Z,58.35
2023-04-15T07:32:10.869Z,59.28
2023-04-15T07:33:12.610Z,59.06
2023-04-15T07:34:14.621Z,59.06
2023-04-15T07:35:16.216Z,58.99
2023-04-15T07:36:17.764Z,59.48
2023-04-15T07:37:19.927Z,59.48
2023-04-15T07:38:21.918Z,58.70
2023-04-15T07:39:23.483Z,58.77
2023-04-15T07:40:25.003Z,59.17
2023-04-15T07:41:26.632Z,58.74
2023-04-15T07:42:29.359Z,58.72
2023-04-15T07:43:30.901Z,59.06
2023-04-15T07:44:32.473Z,59.96
2023-04-15T07:45:34.426Z,60.05
2023-04-15T07:46:36.273Z,60.07
2023-04-15T07:47:37.868Z,60.06
2023-04-15T07:48:39.433Z,59.84
2023-04-15T07:49:42.226Z,59.80
2023-04-15T07:50:43.773Z,59.89
2023-04-15T07:51:45.999Z,60.18
2023-04-15T07:52:47.604Z,59.93
2023-04-15T07:53:50.643Z,59.74
2023-04-15T07:54:52.499Z,60.03
2023-04-15T07:55:54.051Z,60.05
2023-04-15T07:56:56.504Z,59.19
2023-04-15T07:57:58.088Z,59.39
2023-04-15T07:59:02.350Z,59.44
2023-04-15T08:00:07.542Z,59.67
2023-04-15T08:01:09.090Z,59.46
2023-04-15T08:02:11.510Z,59.96
2023-04-15T08:03:13.344Z,59.84
2023-04-15T08:04:15.501Z,59.47
2023-04-15T08:05:17.344Z,59.16
2023-04-15T08:06:19.540Z,59.50
2023-04-15T08:07:21.424Z,59.35
2023-04-15T08:08:22.997Z,59.07
2023-04-15T08:09:24.932Z,59.78
2023-04-15T08:10:26.466Z,59.97
2023-04-15T08:11:27.973Z,60.43
2023-04-15T08:12:29.476Z,60.25
2023-04-15T08:13:31.053Z,59.73
2023-04-15T08:14:32.933Z,60.28
2023-04-15T08:15:34.495Z,59.77
2023-04-15T08:16:36.122Z,59.73
2023-04-15T08:17:37.800Z,59.90
2023-04-15T08:18:39.354Z,60.50
2023-04-15T08:19:41.431Z,60.72
2023-04-15T08:20:43.256Z,61.06
2023-04-15T08:21:44.842Z,61.66
2023-04-15T08:22:47.861Z,61.61
2023-04-15T08:23:50.205Z,60.70
2023-04-15T08:24:52.386Z,61.07
2023-04-15T08:25:54.004Z,61.74
2023-04-15T08:26:56.780Z,61.95
2023-04-15T08:27:58.419Z,61.72
2023-04-15T08:29:00.192Z,61.87
2023-04-15T08:30:04.603Z,62.06
2023-04-15T08:31:06.870Z,62.18
2023-04-15T08:32:08.656Z,62.00
2023-04-15T08:33:10.456Z,61.57
2023-04-15T08:34:12.486Z,61.89
2023-04-15T08:35:16.591Z,61.35
2023-04-15T08:36:18.978Z,61.94
2023-04-15T08:37:20.986Z,61.92
2023-04-15T08:38:22.767Z,61.71
2023-04-15T08:39:24.281Z,62.01
2023-04-15T08:40:25.962Z,61.84
2023-04-15T08:41:27.511Z,61.14
2023-04-15T08:42:32.509Z,61.47
2023-04-15T08:43:34.790Z,61.24
2023-04-15T08:44:40.121Z,61.31
2023-04-15T08:45:41.664Z,61.29
2023-04-15T08:46:43.273Z,60.68
2023-04-15T08:47:44.797Z,60.95
2023-04-15T08:48:47.394Z,61.78
2023-04-15T08:49:53.880Z,62.10
2023-04-15T08:50:55.485Z,61.70
2023-04-15T08:51:58.928Z,61.75
2023-04-15T08:53:00.480Z,61.98
2023-04-15T08:54:02.555Z,62.12
2023-04-15T08:55:04.990Z,62.47
2023-04-15T08:56:07.057Z,63.37
2023-04-15T08:57:08.607Z,62.32
2023-04-15T08:58:11.353Z,62.38
2023-04-15T08:59:12.962Z,62.52
2023-04-15T09:00:14.996Z,62.71
2023-04-15T09:01:16.974Z,61.75
2023-04-15T09:02:18.574Z,62.24
2023-04-15T09:03:21.778Z,62.17
2023-04-15T09:04:23.304Z,61.52
2023-04-15T09:05:24.802Z,61.85
2023-04-15T09:06:26.340Z,61.81
2023-04-15T09:07:27.888Z,61.50
2023-04-15T09:08:29.400Z,61.01
2023-04-15T09:09:31.691Z,61.35
2023-04-15T09:10:33.528Z,61.57
2023-04-15T09:11:35.130Z,61.61
2023-04-15T09:12:36.966Z,62.13
2023-04-15T09:13:39.082Z,62.02
2023-04-15T09:14:40.647Z,61.71
2023-04-15T09:15:43.001Z,61.77
2023-04-15T09:17:00.455Z,61.41
2023-04-15T09:18:02.099Z,60.94
2023-04-15T09:19:23.242Z,61.32
2023-04-15T09:20:24.903Z,61.64
2023-04-15T09:21:26.446Z,62.58
2023-04-15T09:22:32.454Z,61.69
2023-04-15T09:23:34.504Z,61.94
2023-04-15T09:24:38.520Z,62.15
2023-04-15T09:25:40.450Z,62.10
2023-04-15T09:26:41.951Z,61.69
2023-04-15T09:27:49.963Z,62.36
2023-04-15T09:28:52.211Z,62.11
2023-04-15T09:29:54.048Z,61.84
2023-04-15T09:30:57.464Z,62.51
2023-04-15T09:32:10.172Z,62.31
2023-04-15T09:33:12.121Z,62.43
2023-04-15T09:34:13.992Z,61.67
2023-04-15T09:35:15.811Z,61.39
2023-04-15T09:36:17.322Z,61.84
2023-04-15T09:37:31.793Z,61.58
2023-04-15T09:38:34.002Z,60.77
2023-04-15T09:39:52.055Z,60.99
2023-04-15T09:40:53.680Z,61.32
2023-04-15T09:42:05.794Z,61.98
2023-04-15T09:43:08.623Z,61.54
2023-04-15T09:44:23.945Z,62.60
2023-04-15T09:45:28.814Z,62.04
2023-04-15T09:46:43.772Z,62.66
2023-04-15T09:47:45.710Z,61.49
2023-04-15T09:48:47.314Z,61.44
2023-04-15T09:49:58.677Z,61.91
2023-04-15T09:51:01.364Z,61.56
2023-04-15T09:52:06.147Z,61.42
2023-04-15T09:53:09.899Z,61.29
2023-04-15T09:54:11.552Z,61.05
2023-04-15T09:55:13.745Z,60.82
2023-04-15T09:56:15.335Z,61.37
2023-04-15T09:57:16.843Z,61.98
2023-04-15T09:58:19.870Z,62.30
2023-04-15T09:59:21.922Z,61.76
2023-04-15T10:00:23.487Z,61.50
2023-04-15T10:01:25.020Z,61.67
2023-04-15T10:02:27.279Z,61.83
2023-04-15T10:03:34.450Z,62.52
2023-04-15T10:04:37.890Z,62.24
2023-04-15T10:05:39.842Z,61.83
2023-04-15T10:06:41.351Z,62.39
2023-04-15T10:07:42.978Z,62.95
2023-04-15T10:08:44.595Z,61.36
2023-04-15T10:09:47.218Z,62.24
2023-04-15T10:10:49.014Z,62.51
2023-04-15T10:11:50.613Z,62.57
2023-04-15T10:12:52.155Z,62.90
2023-04-15T10:13:54.854Z,62.77
2023-04-15T10:15:01.414Z,63.11
2023-04-15T10:16:13.407Z,62.01
2023-04-15T10:17:14.981Z,61.73
2023-04-15T10:18:17.784Z,61.83
2023-04-15T10:19:19.831Z,62.54
2023-04-15T10:20:21.401Z,63.08
2023-04-15T10:21:23.694Z,62.91
2023-04-15T10:22:25.340Z,62.25
2023-04-15T10:23:27.468Z,62.08
2023-04-15T10:24:29.053Z,62.12
2023-04-15T10:25:30.924Z,62.72
2023-04-15T10:26:32.528Z,62.79
2023-04-15T10:27:34.144Z,62.81
2023-04-15T10:28:35.816Z,62.95
2023-04-15T10:29:42.637Z,63.39
2023-04-15T10:30:44.187Z,62.48
2023-04-15T10:31:46.233Z,62.53
2023-04-15T10:32:48.223Z,62.76
2023-04-15T10:33:49.872Z,62.87
2023-04-15T10:34:54.229Z,62.81
2023-04-15T10:35:56.163Z,62.76
2023-04-15T10:37:09.507Z,63.24
2023-04-15T10:38:40.204Z,62.72
2023-04-15T10:39:43.116Z,62.51
2023-04-15T10:40:45.388Z,61.51
2023-04-15T10:41:46.880Z,61.32
2023-04-15T10:42:48.432Z,61.73
2023-04-15T10:44:01.190Z,62.49
2023-04-15T10:45:03.595Z,62.47
2023-04-15T10:46:08.790Z,62.59
2023-04-15T10:47:21.322Z,62.66
2023-04-15T10:48:23.465Z,62.50
2023-04-15T10:49:25.701Z,61.45
2023-04-15T10:50:28.193Z,62.04
2023-04-15T10:51:30.733Z,61.67
2023-04-15T10:52:33.029Z,60.98
2023-04-15T10:53:34.655Z,60.68
2023-04-15T10:54:38.934Z,61.26
2023-04-15T10:55:40.728Z,61.06
2023-04-15T10:56:43.907Z,61.28
2023-04-15T10:57:45.920Z,61.50
2023-04-15T10:58:47.515Z,61.13
2023-04-15T11:00:01.114Z,60.61
2023-04-15T11:01:03.509Z,60.62
2023-04-15T11:02:08.789Z,61.15
2023-04-15T11:03:10.708Z,61.39
2023-04-15T11:04:12.498Z,60.97
2023-04-15T11:05:15.569Z,60.52
2023-04-15T11:06:17.026Z,60.56
2023-04-15T11:07:55.497Z,61.39
2023-04-15T11:08:58.948Z,60.79
2023-04-15T11:10:00.731Z,61.30
2023-04-15T11:11:02.257Z,60.90
2023-04-15T11:12:10.480Z,61.67
2023-04-15T11:13:12.202Z,61.20
2023-04-15T11:14:16.928Z,60.73
2023-04-15T11:15:43.243Z,59.90
2023-04-15T11:16:45.310Z,59.06
2023-04-15T11:17:47.122Z,59.16
2023-04-15T11:18:55.878Z,60.34
2023-04-15T11:19:57.668Z,61.06
2023-04-15T11:21:06.729Z,61.48
2023-04-15T11:22:11.254Z,61.62
2023-04-15T11:23:15.310Z,60.83
2023-04-15T11:24:27.234Z,60.55
2023-04-15T11:25:30.731Z,60.28
2023-04-15T11:26:32.299Z,60.38
2023-04-15T11:27:34.155Z,59.71
2023-04-15T11:28:36.815Z,60.25
2023-04-15T11:29:39.030Z,60.60
2023-04-15T11:30:40.779Z,60.70
2023-04-15T11:31:42.635Z,60.46
2023-04-15T11:32:44.267Z,60.50
2023-04-15T11:33:46.985Z,60.69
2023-04-15T11:34:48.965Z,60.45
2023-04-15T11:35:51.319Z,60.83
2023-04-15T11:36:52.903Z,60.81
2023-04-15T11:37:55.213Z,60.05
2023-04-15T11:38:58.068Z,60.04
2023-04-15T11:39:59.574Z,59.85
2023-04-15T11:41:01.212Z,60.49
2023-04-15T11:42:02.897Z,59.58
2023-04-15T11:43:14.697Z,58.70
2023-04-15T11:44:17.226Z,58.62
2023-04-15T11:45:18.764Z,59.45
2023-04-15T11:46:21.498Z,59.05
2023-04-15T11:47:25.974Z,59.23
2023-04-15T11:48:31.036Z,58.99
2023-04-15T11:49:34.017Z,58.90
2023-04-15T11:50:36.047Z,58.06
2023-04-15T11:51:37.674Z,57.55
2023-04-15T11:52:39.227Z,58.47
2023-04-15T11:53:46.795Z,58.40
2023-04-15T11:54:48.325Z,58.46
2023-04-15T11:55:51.724Z,59.16
2023-04-15T11:56:54.630Z,59.25
2023-04-15T11:58:11.817Z,59.69
2023-04-15T11:59:13.340Z,59.58
2023-04-15T12:00:16.885Z,58.94
2023-04-15T12:01:18.732Z,58.62
2023-04-15T12:02:20.602Z,58.67
2023-04-15T12:03:23.783Z,58.94
2023-04-15T12:04:26.194Z,59.93
2023-04-15T12:05:28.019Z,59.56
2023-04-15T12:06:36.883Z,59.73
2023-04-15T12:08:00.755Z,59.06
2023-04-15T12:09:09.793Z,58.96
2023-04-15T12:10:11.225Z,57.58
2023-04-15T12:11:12.810Z,57.77
2023-04-15T12:12:14.351Z,57.29
2023-04-15T12:13:16.468Z,57.85
2023-04-15T12:14:28.784Z,57.57
2023-04-15T12:15:30.792Z,57.16
2023-04-15T12:16:34.624Z,57.82
2023-04-15T12:17:51.330Z,57.96
2023-04-15T12:18:56.124Z,58.19
2023-04-15T12:19:57.910Z,57.93
2023-04-15T12:21:08.936Z,58.63
2023-04-15T12:22:16.959Z,57.91
2023-04-15T12:23:21.263Z,57.82
2023-04-15T12:24:23.546Z,57.70
2023-04-15T12:25:34.543Z,57.60
2023-04-15T12:26:57.220Z,57.95
2023-04-15T12:27:59.422Z,57.86
2023-04-15T12:29:02.059Z,58.84
2023-04-15T12:30:04.973Z,59.02
2023-04-15T12:31:10.051Z,57.61
2023-04-15T12:32:15.537Z,57.60
2023-04-15T12:33:17.300Z,57.72
2023-04-15T12:34:26.128Z,58.25
2023-04-15T12:35:27.609Z,58.10
2023-04-15T12:36:31.740Z,57.57
2023-04-15T12:37:33.487Z,57.79
2023-04-15T12:38:35.060Z,57.47
2023-04-15T12:39:37.825Z,57.56
2023-04-15T12:40:39.338Z,57.51
2023-04-15T12:41:41.010Z,57.62
2023-04-15T12:42:42.520Z,57.47
2023-04-15T12:43:47.197Z,57.93
2023-04-15T12:44:48.734Z,57.02
2023-04-15T12:45:50.379Z,56.64
2023-04-15T12:46:53.499Z,57.42
2023-04-15T12:47:55.139Z,57.61
2023-04-15T12:48:56.890Z,57.62
2023-04-15T12:49:58.680Z,58.17
2023-04-15T12:51:00.632Z,57.83
2023-04-15T12:52:02.431Z,58.08
2023-04-15T12:53:04.729Z,57.66
2023-04-15T12:54:06.921Z,57.29
2023-04-15T12:55:09.029Z,57.27
2023-04-15T12:56:10.687Z,57.91
2023-04-15T12:57:12.360Z,57.76
2023-04-15T12:58:13.922Z,58.40
2023-04-15T12:59:16.239Z,57.52
2023-04-15T13:00:18.077Z,57.88
2023-04-15T13:01:20.066Z,58.17
2023-04-15T13:02:25.691Z,58.10
2023-04-15T13:03:27.976Z,58.26
2023-04-15T13:04:31.082Z,58.48
2023-04-15T13:05:33.138Z,57.88
2023-04-15T13:06:34.693Z,57.99
2023-04-15T13:07:36.454Z,57.10
2023-04-15T13:08:42.570Z,56.92
2023-04-15T13:09:47.633Z,57.58
2023-04-15T13:10:49.583Z,58.21
2023-04-15T13:11:51.450Z,57.87
2023-04-15T13:12:53.742Z,58.37
2023-04-15T13:13:57.316Z,58.55
2023-04-15T13:14:58.850Z,58.24
2023-04-15T13:16:00.870Z,59.12
2023-04-15T13:17:04.181Z,58.96
2023-04-15T13:18:06.853Z,59.48
2023-04-15T13:19:08.423Z,58.95
2023-04-15T13:20:10.744Z,58.36
2023-04-15T13:21:12.856Z,58.58
2023-04-15T13:22:15.232Z,58.41
2023-04-15T13:23:17.010Z,59.04
2023-04-15T13:24:18.789Z,59.61
2023-04-15T13:25:20.309Z,59.08
2023-04-15T13:26:21.870Z,59.21